sensor_id;sensor_type;location;lat;lon;timestamp;temperature;humidity
27492;DHT22;14927;51.210;6.838;2022-10-22T00:01:44;18.80;71.80
27492;DHT22;14927;51.210;6.838;2022-10-22T00:04:28;18.80;71.80
27492;DHT22;14927;51.210;6.838;2022-10-22T00:07:14;18.80;71.80
27492;DHT22;14927;51.210;6.838;2022-10-22T00:09:59;18.80;71.80
27492;DHT22;14927;51.210;6.838;2022-10-22T00:12:44;18.80;72.60
27492;DHT22;14927;51.210;6.838;2022-10-22T00:15:28;18.80;72.60
27492;DHT22;14927;51.210;6.838;2022-10-22T00:18:13;18.80;71.90
27492;DHT22;14927;51.210;6.838;2022-10-22T00:20:57;18.90;72.80
27492;DHT22;14927;51.210;6.838;2022-10-22T00:23:42;18.80;72.00
27492;DHT22;14927;51.210;6.838;2022-10-22T00:26:26;18.80;71.90
27492;DHT22;14927;51.210;6.838;2022-10-22T00:29:11;18.80;71.90
27492;DHT22;14927;51.210;6.838;2022-10-22T00:31:56;18.80;71.90
27492;DHT22;14927;51.210;6.838;2022-10-22T00:34:41;18.90;72.00
27492;DHT22;14927;51.210;6.838;2022-10-22T00:37:25;18.90;72.00
27492;DHT22;14927;51.210;6.838;2022-10-22T00:40:11;18.80;72.00
27492;DHT22;14927;51.210;6.838;2022-10-22T00:42:55;18.90;72.10
27492;DHT22;14927;51.210;6.838;2022-10-22T00:45:41;18.80;72.10
27492;DHT22;14927;51.210;6.838;2022-10-22T00:48:28;18.80;72.20
27492;DHT22;14927;51.210;6.838;2022-10-22T00:51:14;18.80;72.20
27492;DHT22;14927;51.210;6.838;2022-10-22T00:54:02;18.80;72.20
27492;DHT22;14927;51.210;6.838;2022-10-22T00:56:48;18.90;72.40
27492;DHT22;14927;51.210;6.838;2022-10-22T00:59:32;18.90;72.40
27492;DHT22;14927;51.210;6.838;2022-10-22T01:02:17;18.90;72.50
27492;DHT22;14927;51.210;6.838;2022-10-22T01:05:02;18.80;72.40
27492;DHT22;14927;51.210;6.838;2022-10-22T01:07:50;18.90;72.50
27492;DHT22;14927;51.210;6.838;2022-10-22T01:10:42;18.80;73.30
27492;DHT22;14927;51.210;6.838;2022-10-22T01:13:48;18.80;72.50
27492;DHT22;14927;51.210;6.838;2022-10-22T01:16:53;18.80;72.50
27492;DHT22;14927;51.210;6.838;2022-10-22T01:20:05;18.90;72.50
27492;DHT22;14927;51.210;6.838;2022-10-22T01:29:50;18.80;72.40
27492;DHT22;14927;51.210;6.838;2022-10-22T01:32:45;18.80;72.90
27492;DHT22;14927;51.210;6.838;2022-10-22T01:35:36;18.90;72.70
27492;DHT22;14927;51.210;6.838;2022-10-22T01:38:23;18.80;72.60
27492;DHT22;14927;51.210;6.838;2022-10-22T01:41:08;18.90;72.70
27492;DHT22;14927;51.210;6.838;2022-10-22T01:43:54;18.90;72.70
27492;DHT22;14927;51.210;6.838;2022-10-22T01:46:38;18.80;72.60
27492;DHT22;14927;51.210;6.838;2022-10-22T01:52:50;18.90;72.90
27492;DHT22;14927;51.210;6.838;2022-10-22T01:56:38;18.90;72.80
27492;DHT22;14927;51.210;6.838;2022-10-22T02:00:01;18.90;72.90
27492;DHT22;14927;51.210;6.838;2022-10-22T02:05:48;18.90;72.60
27492;DHT22;14927;51.210;6.838;2022-10-22T02:08:38;18.90;72.80
27492;DHT22;14927;51.210;6.838;2022-10-22T02:11:24;18.90;72.70
27492;DHT22;14927;51.210;6.838;2022-10-22T02:14:10;18.80;72.60
27492;DHT22;14927;51.210;6.838;2022-10-22T02:16:55;18.80;72.60
27492;DHT22;14927;51.210;6.838;2022-10-22T02:19:52;18.80;72.70
27492;DHT22;14927;51.210;6.838;2022-10-22T02:22:38;18.80;72.70
27492;DHT22;14927;51.210;6.838;2022-10-22T02:25:24;18.80;72.70
27492;DHT22;14927;51.210;6.838;2022-10-22T02:28:38;18.80;72.70
27492;DHT22;14927;51.210;6.838;2022-10-22T02:31:31;18.80;73.10
27492;DHT22;14927;51.210;6.838;2022-10-22T02:34:22;18.90;73.00
27492;DHT22;14927;51.210;6.838;2022-10-22T02:37:09;18.80;73.00
27492;DHT22;14927;51.210;6.838;2022-10-22T02:39:54;18.80;73.00
27492;DHT22;14927;51.210;6.838;2022-10-22T02:42:41;18.80;73.00
27492;DHT22;14927;51.210;6.838;2022-10-22T02:45:26;18.90;73.20
27492;DHT22;14927;51.210;6.838;2022-10-22T02:48:10;18.80;73.00
27492;DHT22;14927;51.210;6.838;2022-10-22T02:50:55;18.80;73.00
27492;DHT22;14927;51.210;6.838;2022-10-22T02:53:40;18.80;73.00
27492;DHT22;14927;51.210;6.838;2022-10-22T02:56:24;18.90;73.10
27492;DHT22;14927;51.210;6.838;2022-10-22T02:59:09;18.90;73.10
27492;DHT22;14927;51.210;6.838;2022-10-22T03:01:54;18.80;73.00
27492;DHT22;14927;51.210;6.838;2022-10-22T03:04:39;18.90;73.20
27492;DHT22;14927;51.210;6.838;2022-10-22T03:07:23;18.90;73.20
27492;DHT22;14927;51.210;6.838;2022-10-22T03:10:08;18.90;73.30
27492;DHT22;14927;51.210;6.838;2022-10-22T03:12:53;18.90;73.20
27492;DHT22;14927;51.210;6.838;2022-10-22T03:15:37;18.90;73.10
27492;DHT22;14927;51.210;6.838;2022-10-22T03:18:22;18.90;73.10
27492;DHT22;14927;51.210;6.838;2022-10-22T03:21:08;18.90;73.00
27492;DHT22;14927;51.210;6.838;2022-10-22T03:23:57;18.90;72.90
27492;DHT22;14927;51.210;6.838;2022-10-22T03:26:44;18.90;72.80
27492;DHT22;14927;51.210;6.838;2022-10-22T03:29:33;18.90;72.70
27492;DHT22;14927;51.210;6.838;2022-10-22T03:32:19;18.90;72.70
27492;DHT22;14927;51.210;6.838;2022-10-22T03:35:04;18.80;72.50
27492;DHT22;14927;51.210;6.838;2022-10-22T03:37:50;18.80;72.50
27492;DHT22;14927;51.210;6.838;2022-10-22T03:40:35;18.80;72.50
27492;DHT22;14927;51.210;6.838;2022-10-22T03:43:19;18.90;72.70
27492;DHT22;14927;51.210;6.838;2022-10-22T03:46:04;18.80;72.70
27492;DHT22;14927;51.210;6.838;2022-10-22T03:48:48;18.80;72.90
27492;DHT22;14927;51.210;6.838;2022-10-22T03:51:33;18.80;72.90
27492;DHT22;14927;51.210;6.838;2022-10-22T03:54:18;18.80;73.00
27492;DHT22;14927;51.210;6.838;2022-10-22T03:57:04;18.80;73.00
27492;DHT22;14927;51.210;6.838;2022-10-22T03:59:49;18.80;73.10
27492;DHT22;14927;51.210;6.838;2022-10-22T04:02:34;18.80;73.10
27492;DHT22;14927;51.210;6.838;2022-10-22T04:05:18;18.80;73.20
27492;DHT22;14927;51.210;6.838;2022-10-22T04:08:03;18.80;73.20
27492;DHT22;14927;51.210;6.838;2022-10-22T04:10:51;18.80;73.20
27492;DHT22;14927;51.210;6.838;2022-10-22T04:13:36;18.80;73.30
27492;DHT22;14927;51.210;6.838;2022-10-22T04:16:22;18.80;74.00
27492;DHT22;14927;51.210;6.838;2022-10-22T04:19:07;18.80;73.20
27492;DHT22;14927;51.210;6.838;2022-10-22T04:21:51;18.80;73.10
27492;DHT22;14927;51.210;6.838;2022-10-22T04:24:36;18.70;73.10
27492;DHT22;14927;51.210;6.838;2022-10-22T04:27:20;18.70;73.00
27492;DHT22;14927;51.210;6.838;2022-10-22T04:30:06;18.70;73.00
27492;DHT22;14927;51.210;6.838;2022-10-22T04:32:50;18.70;73.00
27492;DHT22;14927;51.210;6.838;2022-10-22T04:35:37;18.70;72.90
27492;DHT22;14927;51.210;6.838;2022-10-22T04:38:23;18.70;73.60
27492;DHT22;14927;51.210;6.838;2022-10-22T04:41:09;18.70;72.70
27492;DHT22;14927;51.210;6.838;2022-10-22T04:43:55;18.70;72.70
27492;DHT22;14927;51.210;6.838;2022-10-22T04:46:39;18.70;72.70
27492;DHT22;14927;51.210;6.838;2022-10-22T04:49:24;18.70;72.70
27492;DHT22;14927;51.210;6.838;2022-10-22T04:52:09;18.60;72.60
27492;DHT22;14927;51.210;6.838;2022-10-22T04:54:55;18.60;72.60
27492;DHT22;14927;51.210;6.838;2022-10-22T04:57:40;18.60;72.60
27492;DHT22;14927;51.210;6.838;2022-10-22T05:00:24;18.60;72.60
27492;DHT22;14927;51.210;6.838;2022-10-22T05:03:09;18.60;72.60
27492;DHT22;14927;51.210;6.838;2022-10-22T05:05:53;18.50;72.50
27492;DHT22;14927;51.210;6.838;2022-10-22T05:08:38;18.50;72.50
27492;DHT22;14927;51.210;6.838;2022-10-22T05:11:26;18.50;72.50
27492;DHT22;14927;51.210;6.838;2022-10-22T05:14:12;18.50;72.50
27492;DHT22;14927;51.210;6.838;2022-10-22T05:16:57;18.50;72.50
27492;DHT22;14927;51.210;6.838;2022-10-22T05:19:42;18.50;72.50
27492;DHT22;14927;51.210;6.838;2022-10-22T05:22:27;18.40;72.50
27492;DHT22;14927;51.210;6.838;2022-10-22T05:25:11;18.40;72.50
27492;DHT22;14927;51.210;6.838;2022-10-22T05:27:56;18.40;72.60
27492;DHT22;14927;51.210;6.838;2022-10-22T05:30:41;18.40;72.60
27492;DHT22;14927;51.210;6.838;2022-10-22T05:33:30;18.40;72.50
27492;DHT22;14927;51.210;6.838;2022-10-22T05:36:17;18.30;72.40
27492;DHT22;14927;51.210;6.838;2022-10-22T05:39:04;18.40;73.80
27492;DHT22;14927;51.210;6.838;2022-10-22T05:41:49;18.40;72.20
27492;DHT22;14927;51.210;6.838;2022-10-22T05:44:33;18.30;72.20
27492;DHT22;14927;51.210;6.838;2022-10-22T05:47:18;18.30;72.30
27492;DHT22;14927;51.210;6.838;2022-10-22T05:50:03;18.30;72.40
27492;DHT22;14927;51.210;6.838;2022-10-22T05:52:47;18.20;72.40
27492;DHT22;14927;51.210;6.838;2022-10-22T05:55:36;18.20;72.50
27492;DHT22;14927;51.210;6.838;2022-10-22T05:58:21;18.20;72.70
27492;DHT22;14927;51.210;6.838;2022-10-22T06:01:11;18.20;72.70
27492;DHT22;14927;51.210;6.838;2022-10-22T06:04:02;18.20;72.90
27492;DHT22;14927;51.210;6.838;2022-10-22T06:06:49;18.20;73.00
27492;DHT22;14927;51.210;6.838;2022-10-22T06:09:35;18.20;73.20
27492;DHT22;14927;51.210;6.838;2022-10-22T06:12:19;18.20;73.30
27492;DHT22;14927;51.210;6.838;2022-10-22T06:15:04;18.10;73.40
27492;DHT22;14927;51.210;6.838;2022-10-22T06:17:50;18.10;73.50
27492;DHT22;14927;51.210;6.838;2022-10-22T06:20:34;18.10;73.50
27492;DHT22;14927;51.210;6.838;2022-10-22T06:23:19;18.10;73.60
27492;DHT22;14927;51.210;6.838;2022-10-22T06:26:04;18.10;73.60
27492;DHT22;14927;51.210;6.838;2022-10-22T06:28:49;18.10;73.70
27492;DHT22;14927;51.210;6.838;2022-10-22T06:31:34;18.10;73.70
27492;DHT22;14927;51.210;6.838;2022-10-22T06:34:22;18.20;73.80
27492;DHT22;14927;51.210;6.838;2022-10-22T06:37:07;18.10;73.70
27492;DHT22;14927;51.210;6.838;2022-10-22T06:39:53;18.10;73.80
27492;DHT22;14927;51.210;6.838;2022-10-22T06:42:37;18.10;73.90
27492;DHT22;14927;51.210;6.838;2022-10-22T06:45:25;18.10;74.00
27492;DHT22;14927;51.210;6.838;2022-10-22T06:48:09;18.10;74.20
27492;DHT22;14927;51.210;6.838;2022-10-22T06:50:54;18.10;75.00
27492;DHT22;14927;51.210;6.838;2022-10-22T06:53:39;18.10;74.40
27492;DHT22;14927;51.210;6.838;2022-10-22T06:56:25;18.20;74.60
27492;DHT22;14927;51.210;6.838;2022-10-22T06:59:11;18.10;74.70
27492;DHT22;14927;51.210;6.838;2022-10-22T07:01:55;18.20;74.80
27492;DHT22;14927;51.210;6.838;2022-10-22T07:04:40;18.20;74.90
27492;DHT22;14927;51.210;6.838;2022-10-22T07:07:25;18.20;75.00
27492;DHT22;14927;51.210;6.838;2022-10-22T07:10:09;18.20;75.10
27492;DHT22;14927;51.210;6.838;2022-10-22T07:12:54;18.30;75.30
27492;DHT22;14927;51.210;6.838;2022-10-22T07:15:39;18.30;75.40
27492;DHT22;14927;51.210;6.838;2022-10-22T07:18:23;18.30;75.50
27492;DHT22;14927;51.210;6.838;2022-10-22T07:21:10;18.30;75.50
27492;DHT22;14927;51.210;6.838;2022-10-22T07:23:55;18.40;76.40
27492;DHT22;14927;51.210;6.838;2022-10-22T07:26:40;18.40;75.60
27492;DHT22;14927;51.210;6.838;2022-10-22T07:29:25;18.50;75.50
27492;DHT22;14927;51.210;6.838;2022-10-22T07:32:10;18.50;75.30
27492;DHT22;14927;51.210;6.838;2022-10-22T07:34:54;18.50;75.30
27492;DHT22;14927;51.210;6.838;2022-10-22T07:37:39;18.60;75.00
27492;DHT22;14927;51.210;6.838;2022-10-22T07:40:24;18.60;74.80
27492;DHT22;14927;51.210;6.838;2022-10-22T07:43:08;18.60;74.70
27492;DHT22;14927;51.210;6.838;2022-10-22T07:45:53;18.60;74.40
27492;DHT22;14927;51.210;6.838;2022-10-22T07:48:40;18.70;74.40
27492;DHT22;14927;51.210;6.838;2022-10-22T07:51:25;18.70;74.20
27492;DHT22;14927;51.210;6.838;2022-10-22T07:54:10;18.80;74.10
27492;DHT22;14927;51.210;6.838;2022-10-22T07:56:54;18.80;73.90
27492;DHT22;14927;51.210;6.838;2022-10-22T07:59:39;18.80;73.60
27492;DHT22;14927;51.210;6.838;2022-10-22T08:02:24;18.90;73.50
27492;DHT22;14927;51.210;6.838;2022-10-22T08:05:09;18.90;73.40
27492;DHT22;14927;51.210;6.838;2022-10-22T08:07:53;18.90;73.30
27492;DHT22;14927;51.210;6.838;2022-10-22T08:10:38;18.90;74.10
27492;DHT22;14927;51.210;6.838;2022-10-22T08:13:23;18.90;73.30
27492;DHT22;14927;51.210;6.838;2022-10-22T08:16:09;19.00;73.20
27492;DHT22;14927;51.210;6.838;2022-10-22T08:18:53;19.00;72.90
27492;DHT22;14927;51.210;6.838;2022-10-22T08:21:38;19.10;72.80
27492;DHT22;14927;51.210;6.838;2022-10-22T08:24:24;19.10;72.70
27492;DHT22;14927;51.210;6.838;2022-10-22T08:27:10;19.10;72.50
27492;DHT22;14927;51.210;6.838;2022-10-22T08:29:54;19.10;72.30
27492;DHT22;14927;51.210;6.838;2022-10-22T08:32:39;19.10;72.20
27492;DHT22;14927;51.210;6.838;2022-10-22T08:35:24;19.20;72.20
27492;DHT22;14927;51.210;6.838;2022-10-22T08:38:09;19.20;72.20
27492;DHT22;14927;51.210;6.838;2022-10-22T08:41:02;19.20;72.10
27492;DHT22;14927;51.210;6.838;2022-10-22T08:50:45;19.30;70.60
27492;DHT22;14927;51.210;6.838;2022-10-22T08:53:40;19.30;70.30
27492;DHT22;14927;51.210;6.838;2022-10-22T08:56:30;19.30;70.00
27492;DHT22;14927;51.210;6.838;2022-10-22T08:59:29;19.30;70.90
27492;DHT22;14927;51.210;6.838;2022-10-22T09:02:35;19.40;69.70
27492;DHT22;14927;51.210;6.838;2022-10-22T09:08:45;19.40;69.00
27492;DHT22;14927;51.210;6.838;2022-10-22T09:11:36;19.50;68.90
27492;DHT22;14927;51.210;6.838;2022-10-22T09:14:23;19.50;68.40
27492;DHT22;14927;51.210;6.838;2022-10-22T09:21:02;19.60;67.90
27492;DHT22;14927;51.210;6.838;2022-10-22T09:23:57;19.70;68.10
27492;DHT22;14927;51.210;6.838;2022-10-22T09:26:46;19.70;68.00
27492;DHT22;14927;51.210;6.838;2022-10-22T09:29:32;19.70;67.90
27492;DHT22;14927;51.210;6.838;2022-10-22T09:32:18;19.80;68.40
27492;DHT22;14927;51.210;6.838;2022-10-22T09:35:03;19.80;67.30
27492;DHT22;14927;51.210;6.838;2022-10-22T09:37:51;19.90;67.20
27492;DHT22;14927;51.210;6.838;2022-10-22T09:40:46;19.90;67.00
27492;DHT22;14927;51.210;6.838;2022-10-22T09:43:35;19.90;66.60
27492;DHT22;14927;51.210;6.838;2022-10-22T09:46:23;20.00;66.70
27492;DHT22;14927;51.210;6.838;2022-10-22T09:49:13;20.00;66.30
27492;DHT22;14927;51.210;6.838;2022-10-22T09:52:00;20.00;65.90
27492;DHT22;14927;51.210;6.838;2022-10-22T09:54:45;20.00;65.70
27492;DHT22;14927;51.210;6.838;2022-10-22T09:57:29;20.10;65.60
27492;DHT22;14927;51.210;6.838;2022-10-22T10:00:18;20.10;65.40
27492;DHT22;14927;51.210;6.838;2022-10-22T10:03:02;20.10;65.10
27492;DHT22;14927;51.210;6.838;2022-10-22T10:05:51;20.10;64.90
27492;DHT22;14927;51.210;6.838;2022-10-22T10:08:36;20.10;64.40
27492;DHT22;14927;51.210;6.838;2022-10-22T10:11:48;20.20;64.40
27492;DHT22;14927;51.210;6.838;2022-10-22T10:31:19;20.30;62.70
27492;DHT22;14927;51.210;6.838;2022-10-22T10:34:24;20.30;62.40
27492;DHT22;14927;51.210;6.838;2022-10-22T10:37:29;20.30;62.60
27492;DHT22;14927;51.210;6.838;2022-10-22T10:40:28;20.30;62.10
27492;DHT22;14927;51.210;6.838;2022-10-22T10:46:34;20.40;61.60
27492;DHT22;14927;51.210;6.838;2022-10-22T10:49:33;20.40;61.80
27492;DHT22;14927;51.210;6.838;2022-10-22T10:55:31;20.50;61.50
27492;DHT22;14927;51.210;6.838;2022-10-22T10:59:09;20.50;61.00
27492;DHT22;14927;51.210;6.838;2022-10-22T11:05:49;20.60;60.70
27492;DHT22;14927;51.210;6.838;2022-10-22T11:08:58;20.60;60.50
27492;DHT22;14927;51.210;6.838;2022-10-22T11:11:52;20.60;60.10
27492;DHT22;14927;51.210;6.838;2022-10-22T11:21:55;20.60;59.60
27492;DHT22;14927;51.210;6.838;2022-10-22T11:25:02;20.70;59.80
27492;DHT22;14927;51.210;6.838;2022-10-22T11:31:12;20.60;59.40
27492;DHT22;14927;51.210;6.838;2022-10-22T11:34:18;20.70;59.80
27492;DHT22;14927;51.210;6.838;2022-10-22T11:37:14;20.70;59.50
27492;DHT22;14927;51.210;6.838;2022-10-22T11:43:07;20.70;59.30
27492;DHT22;14927;51.210;6.838;2022-10-22T11:49:27;20.70;59.10
27492;DHT22;14927;51.210;6.838;2022-10-22T12:01:29;20.70;59.20
27492;DHT22;14927;51.210;6.838;2022-10-22T12:04:39;20.80;59.00
27492;DHT22;14927;51.210;6.838;2022-10-22T12:10:33;20.80;58.80
27492;DHT22;14927;51.210;6.838;2022-10-22T12:14:02;20.80;58.90
27492;DHT22;14927;51.210;6.838;2022-10-22T12:17:11;20.90;58.00
27492;DHT22;14927;51.210;6.838;2022-10-22T12:20:11;20.90;57.70
27492;DHT22;14927;51.210;6.838;2022-10-22T12:22:57;21.00;57.40
27492;DHT22;14927;51.210;6.838;2022-10-22T12:25:43;21.00;57.70
27492;DHT22;14927;51.210;6.838;2022-10-22T12:28:27;21.00;57.60
27492;DHT22;14927;51.210;6.838;2022-10-22T12:31:15;21.10;57.50
27492;DHT22;14927;51.210;6.838;2022-10-22T12:34:00;21.10;57.10
27492;DHT22;14927;51.210;6.838;2022-10-22T12:36:46;21.10;57.20
27492;DHT22;14927;51.210;6.838;2022-10-22T12:39:32;21.10;57.10
27492;DHT22;14927;51.210;6.838;2022-10-22T12:42:18;21.10;56.90
27492;DHT22;14927;51.210;6.838;2022-10-22T12:45:03;21.10;57.40
27492;DHT22;14927;51.210;6.838;2022-10-22T12:47:50;21.20;56.70
27492;DHT22;14927;51.210;6.838;2022-10-22T12:50:42;21.20;56.40
27492;DHT22;14927;51.210;6.838;2022-10-22T12:56:24;21.20;56.50
27492;DHT22;14927;51.210;6.838;2022-10-22T12:59:19;21.20;56.20
27492;DHT22;14927;51.210;6.838;2022-10-22T13:02:21;21.20;55.80
27492;DHT22;14927;51.210;6.838;2022-10-22T13:05:21;21.20;55.60
27492;DHT22;14927;51.210;6.838;2022-10-22T13:08:10;21.20;55.60
27492;DHT22;14927;51.210;6.838;2022-10-22T13:10:55;21.20;55.80
27492;DHT22;14927;51.210;6.838;2022-10-22T13:13:50;21.30;55.80
27492;DHT22;14927;51.210;6.838;2022-10-22T13:20:01;21.30;55.10
27492;DHT22;14927;51.210;6.838;2022-10-22T13:22:57;21.40;55.80
27492;DHT22;14927;51.210;6.838;2022-10-22T13:28:57;21.40;54.70
27492;DHT22;14927;51.210;6.838;2022-10-22T13:31:46;21.50;55.60
27492;DHT22;14927;51.210;6.838;2022-10-22T13:34:31;21.60;55.30
27492;DHT22;14927;51.210;6.838;2022-10-22T13:37:16;21.70;55.10
27492;DHT22;14927;51.210;6.838;2022-10-22T13:40:04;21.70;55.50
27492;DHT22;14927;51.210;6.838;2022-10-22T13:43:00;21.80;54.60
27492;DHT22;14927;51.210;6.838;2022-10-22T13:45:47;21.90;54.90
27492;DHT22;14927;51.210;6.838;2022-10-22T13:48:33;21.90;54.40
27492;DHT22;14927;51.210;6.838;2022-10-22T13:51:32;21.90;53.60
27492;DHT22;14927;51.210;6.838;2022-10-22T13:54:20;22.00;52.90
27492;DHT22;14927;51.210;6.838;2022-10-22T13:57:09;22.00;53.80
27492;DHT22;14927;51.210;6.838;2022-10-22T13:59:54;22.00;53.00
27492;DHT22;14927;51.210;6.838;2022-10-22T14:02:39;22.00;53.20
27492;DHT22;14927;51.210;6.838;2022-10-22T14:05:24;22.00;53.10
27492;DHT22;14927;51.210;6.838;2022-10-22T14:08:17;22.00;53.10
27492;DHT22;14927;51.210;6.838;2022-10-22T14:11:03;22.00;53.00
27492;DHT22;14927;51.210;6.838;2022-10-22T14:13:47;22.00;53.30
27492;DHT22;14927;51.210;6.838;2022-10-22T14:16:32;22.00;53.30
27492;DHT22;14927;51.210;6.838;2022-10-22T14:19:17;22.00;53.30
27492;DHT22;14927;51.210;6.838;2022-10-22T14:22:02;22.00;53.40
27492;DHT22;14927;51.210;6.838;2022-10-22T14:24:46;22.00;53.50
27492;DHT22;14927;51.210;6.838;2022-10-22T14:27:31;22.00;53.40
27492;DHT22;14927;51.210;6.838;2022-10-22T14:30:18;22.00;53.40
27492;DHT22;14927;51.210;6.838;2022-10-22T14:33:17;22.00;53.30
27492;DHT22;14927;51.210;6.838;2022-10-22T14:36:03;22.00;53.10
27492;DHT22;14927;51.210;6.838;2022-10-22T14:38:47;22.00;53.50
27492;DHT22;14927;51.210;6.838;2022-10-22T14:41:32;22.00;53.50
27492;DHT22;14927;51.210;6.838;2022-10-22T14:44:17;22.00;53.50
27492;DHT22;14927;51.210;6.838;2022-10-22T14:47:01;22.00;53.40
27492;DHT22;14927;51.210;6.838;2022-10-22T14:49:46;22.10;53.50
27492;DHT22;14927;51.210;6.838;2022-10-22T14:52:31;22.10;53.30
27492;DHT22;14927;51.210;6.838;2022-10-22T14:55:17;22.10;53.20
27492;DHT22;14927;51.210;6.838;2022-10-22T14:58:02;22.10;53.10
27492;DHT22;14927;51.210;6.838;2022-10-22T15:00:47;22.10;53.20
27492;DHT22;14927;51.210;6.838;2022-10-22T15:03:32;22.10;53.20
27492;DHT22;14927;51.210;6.838;2022-10-22T15:06:18;22.10;53.40
27492;DHT22;14927;51.210;6.838;2022-10-22T15:09:02;22.10;53.50
27492;DHT22;14927;51.210;6.838;2022-10-22T15:11:47;22.10;53.70
27492;DHT22;14927;51.210;6.838;2022-10-22T15:14:32;22.10;53.80
27492;DHT22;14927;51.210;6.838;2022-10-22T15:17:17;22.10;53.90
27492;DHT22;14927;51.210;6.838;2022-10-22T15:20:03;22.10;53.90
27492;DHT22;14927;51.210;6.838;2022-10-22T15:22:48;22.10;54.00
27492;DHT22;14927;51.210;6.838;2022-10-22T15:25:33;22.10;54.00
27492;DHT22;14927;51.210;6.838;2022-10-22T15:28:18;22.10;54.10
27492;DHT22;14927;51.210;6.838;2022-10-22T15:31:03;22.10;54.10
27492;DHT22;14927;51.210;6.838;2022-10-22T15:33:48;22.10;54.10
27492;DHT22;14927;51.210;6.838;2022-10-22T15:36:32;22.10;54.20
27492;DHT22;14927;51.210;6.838;2022-10-22T15:39:17;22.10;54.30
27492;DHT22;14927;51.210;6.838;2022-10-22T15:42:01;22.00;54.30
27492;DHT22;14927;51.210;6.838;2022-10-22T15:44:47;22.00;54.40
27492;DHT22;14927;51.210;6.838;2022-10-22T15:47:31;22.00;54.40
27492;DHT22;14927;51.210;6.838;2022-10-22T15:50:17;22.00;54.40
27492;DHT22;14927;51.210;6.838;2022-10-22T15:53:01;21.90;54.40
27492;DHT22;14927;51.210;6.838;2022-10-22T15:55:49;21.90;54.50
27492;DHT22;14927;51.210;6.838;2022-10-22T15:58:33;21.90;54.50
27492;DHT22;14927;51.210;6.838;2022-10-22T16:01:18;21.90;55.00
27492;DHT22;14927;51.210;6.838;2022-10-22T16:04:04;21.80;54.80
27492;DHT22;14927;51.210;6.838;2022-10-22T16:06:51;21.80;54.90
27492;DHT22;14927;51.210;6.838;2022-10-22T16:09:36;21.80;54.90
27492;DHT22;14927;51.210;6.838;2022-10-22T16:12:21;21.70;54.90
27492;DHT22;14927;51.210;6.838;2022-10-22T16:15:06;21.80;55.10
27492;DHT22;14927;51.210;6.838;2022-10-22T16:17:52;21.70;55.10
27492;DHT22;14927;51.210;6.838;2022-10-22T16:20:40;21.70;55.20
27492;DHT22;14927;51.210;6.838;2022-10-22T16:23:25;21.70;55.30
27492;DHT22;14927;51.210;6.838;2022-10-22T16:26:10;21.60;55.40
27492;DHT22;14927;51.210;6.838;2022-10-22T16:28:57;21.60;55.60
27492;DHT22;14927;51.210;6.838;2022-10-22T16:31:42;21.60;55.70
27492;DHT22;14927;51.210;6.838;2022-10-22T16:34:30;21.60;55.80
27492;DHT22;14927;51.210;6.838;2022-10-22T16:37:14;21.60;56.00
27492;DHT22;14927;51.210;6.838;2022-10-22T16:39:59;21.50;56.10
27492;DHT22;14927;51.210;6.838;2022-10-22T16:42:43;21.50;56.20
27492;DHT22;14927;51.210;6.838;2022-10-22T16:45:28;21.50;56.30
27492;DHT22;14927;51.210;6.838;2022-10-22T16:48:13;21.40;56.40
27492;DHT22;14927;51.210;6.838;2022-10-22T16:51:03;21.40;56.60
27492;DHT22;14927;51.210;6.838;2022-10-22T16:53:54;21.40;56.90
27492;DHT22;14927;51.210;6.838;2022-10-22T16:56:39;21.30;57.10
27492;DHT22;14927;51.210;6.838;2022-10-22T16:59:24;21.30;57.30
27492;DHT22;14927;51.210;6.838;2022-10-22T17:02:12;21.20;57.40
27492;DHT22;14927;51.210;6.838;2022-10-22T17:04:57;21.20;57.70
27492;DHT22;14927;51.210;6.838;2022-10-22T17:07:41;21.10;57.70
27492;DHT22;14927;51.210;6.838;2022-10-22T17:10:26;21.10;57.90
27492;DHT22;14927;51.210;6.838;2022-10-22T17:13:10;21.00;58.00
27492;DHT22;14927;51.210;6.838;2022-10-22T17:16:04;21.00;58.20
27492;DHT22;14927;51.210;6.838;2022-10-22T17:18:49;20.90;58.50
27492;DHT22;14927;51.210;6.838;2022-10-22T17:21:34;20.90;58.60
27492;DHT22;14927;51.210;6.838;2022-10-22T17:24:19;20.80;59.40
27492;DHT22;14927;51.210;6.838;2022-10-22T17:27:03;20.80;58.90
27492;DHT22;14927;51.210;6.838;2022-10-22T17:29:48;20.70;59.10
27492;DHT22;14927;51.210;6.838;2022-10-22T17:32:37;20.60;59.20
27492;DHT22;14927;51.210;6.838;2022-10-22T17:35:22;20.60;59.50
27492;DHT22;14927;51.210;6.838;2022-10-22T17:38:07;20.50;59.60
27492;DHT22;14927;51.210;6.838;2022-10-22T17:40:52;20.50;59.80
27492;DHT22;14927;51.210;6.838;2022-10-22T17:43:36;20.50;59.90
27492;DHT22;14927;51.210;6.838;2022-10-22T17:46:28;20.40;60.10
27492;DHT22;14927;51.210;6.838;2022-10-22T17:49:19;20.30;60.30
27492;DHT22;14927;51.210;6.838;2022-10-22T17:52:04;20.30;60.30
27492;DHT22;14927;51.210;6.838;2022-10-22T17:54:48;20.30;60.30
27492;DHT22;14927;51.210;6.838;2022-10-22T17:57:34;20.20;61.20
27492;DHT22;14927;51.210;6.838;2022-10-22T18:00:18;20.20;60.60
27492;DHT22;14927;51.210;6.838;2022-10-22T18:03:04;20.20;60.70
27492;DHT22;14927;51.210;6.838;2022-10-22T18:05:49;20.10;60.80
27492;DHT22;14927;51.210;6.838;2022-10-22T18:08:33;20.10;61.00
27492;DHT22;14927;51.210;6.838;2022-10-22T18:11:21;20.10;61.10
27492;DHT22;14927;51.210;6.838;2022-10-22T18:14:07;20.00;61.30
27492;DHT22;14927;51.210;6.838;2022-10-22T18:16:52;20.00;61.30
27492;DHT22;14927;51.210;6.838;2022-10-22T18:19:37;20.00;61.40
27492;DHT22;14927;51.210;6.838;2022-10-22T18:22:22;19.90;61.50
27492;DHT22;14927;51.210;6.838;2022-10-22T18:25:07;19.90;61.70
27492;DHT22;14927;51.210;6.838;2022-10-22T18:27:52;19.90;61.80
27492;DHT22;14927;51.210;6.838;2022-10-22T18:30:37;19.80;61.80
27492;DHT22;14927;51.210;6.838;2022-10-22T18:33:25;19.80;62.00
27492;DHT22;14927;51.210;6.838;2022-10-22T18:36:13;19.80;62.10
27492;DHT22;14927;51.210;6.838;2022-10-22T18:39:03;19.80;62.30
27492;DHT22;14927;51.210;6.838;2022-10-22T18:41:48;19.70;62.30
27492;DHT22;14927;51.210;6.838;2022-10-22T18:44:33;19.70;62.40
27492;DHT22;14927;51.210;6.838;2022-10-22T18:47:19;19.70;62.50
27492;DHT22;14927;51.210;6.838;2022-10-22T18:50:04;19.70;62.70
27492;DHT22;14927;51.210;6.838;2022-10-22T18:52:49;19.60;62.70
27492;DHT22;14927;51.210;6.838;2022-10-22T18:55:37;19.70;62.80
27492;DHT22;14927;51.210;6.838;2022-10-22T18:58:22;19.60;63.00
27492;DHT22;14927;51.210;6.838;2022-10-22T19:01:08;19.60;62.90
27492;DHT22;14927;51.210;6.838;2022-10-22T19:03:57;19.60;63.00
27492;DHT22;14927;51.210;6.838;2022-10-22T19:06:41;19.60;63.50
27492;DHT22;14927;51.210;6.838;2022-10-22T19:09:26;19.60;62.80
27492;DHT22;14927;51.210;6.838;2022-10-22T19:12:11;19.50;62.90